Time;durP1;ratioP1;P1;durP2;ratioP2;P2;SDS_P1;SDS_P2;PMS_P1;PMS_P2;Temp;Humidity;BMP_temperature;BMP_pressure;BME280_temperature;BME280_humidity;BME280_pressure;Samples;Min_cycle;Max_cycle;Signal;HPM_P1;HPM_P2
2023/04/29 00:00:11;;;;;;;13.93;5.87;;;;;;;18.76;51.20;97829.34;4456042;32;20138;-82
2023/04/29 00:02:39;;;;;;;14.20;7.32;;;;;;;18.32;52.83;97827.56;4455976;32;20501;-82
2023/04/29 00:05:06;;;;;;;13.18;6.70;;;;;;;18.69;52.36;97830.75;4455295;32;20089;-83
2023/04/29 00:07:35;;;;;;;15.95;6.65;;;;;;;18.49;52.90;97834.91;4455960;32;20096;-83
2023/04/29 00:10:02;;;;;;;12.77;6.60;;;;;;;16.78;59.55;97824.22;4454630;32;20112;-83
2023/04/29 00:12:30;;;;;;;14.48;6.85;;;;;;;18.20;54.55;97821.50;4455575;32;20081;-83
2023/04/29 00:14:58;;;;;;;16.27;7.47;;;;;;;18.04;55.19;97818.41;4455709;32;20345;-83
2023/04/29 00:17:25;;;;;;;12.05;6.25;;;;;;;18.04;54.92;97814.00;4455368;32;20093;-83
2023/04/29 00:19:52;;;;;;;12.77;6.62;;;;;;;18.27;53.79;97816.62;4455757;32;20141;-83
2023/04/29 00:22:21;;;;;;;13.73;7.07;;;;;;;18.07;54.20;97805.09;4455766;32;20085;-83
2023/04/29 00:24:49;;;;;;;14.20;6.53;;;;;;;18.10;53.66;97804.91;4455314;32;20112;-83
2023/04/29 00:27:16;;;;;;;13.02;6.50;;;;;;;18.38;52.97;97808.78;4455719;32;20101;-83
2023/04/29 00:29:43;;;;;;;14.35;6.53;;;;;;;18.20;53.11;97811.91;4455441;32;20156;-83
2023/04/29 00:32:10;;;;;;;15.55;7.07;;;;;;;17.87;54.15;97810.09;4455126;32;20147;-83
2023/04/29 00:34:37;;;;;;;13.15;6.78;;;;;;;17.92;54.39;97801.91;4455461;32;20093;-83
2023/04/29 00:37:04;;;;;;;15.55;7.10;;;;;;;18.42;53.08;97800.59;4455485;32;20435;-83
2023/04/29 00:39:31;;;;;;;15.55;6.72;;;;;;;18.26;52.63;97805.34;4455007;32;20093;-83
2023/04/29 00:41:58;;;;;;;16.92;7.65;;;;;;;17.73;53.22;97815.50;4455639;32;20577;-83
2023/04/29 00:44:24;;;;;;;16.27;7.40;;;;;;;17.77;53.09;97808.31;4441477;32;20101;-83
2023/04/29 00:46:51;;;;;;;18.40;7.53;;;;;;;17.70;53.31;97809.69;4455043;32;20157;-83
2023/04/29 00:49:18;;;;;;;12.63;6.70;;;;;;;18.33;51.50;97821.37;4455330;32;20406;-83
2023/04/29 00:51:46;;;;;;;17.58;7.57;;;;;;;18.41;51.26;97821.63;4455308;32;20076;-83
2023/04/29 00:54:13;;;;;;;13.60;7.57;;;;;;;18.67;50.96;97822.22;4440771;32;20105;-83
2023/04/29 00:56:42;;;;;;;14.10;7.03;;;;;;;18.76;51.14;97827.53;4455273;32;20162;-83
2023/04/29 00:59:11;;;;;;;14.45;7.12;;;;;;;17.96;53.78;97811.16;4455012;32;20104;-83
2023/04/29 01:01:38;;;;;;;17.92;7.43;;;;;;;17.60;56.00;97809.53;4455111;32;20082;-83
2023/04/29 01:04:06;;;;;;;19.42;7.47;;;;;;;18.12;54.15;97818.66;4454797;32;20471;-83
2023/04/29 01:06:49;;;;;;;15.38;7.60;;;;;;;17.82;54.99;97819.22;4454788;32;20176;-83
2023/04/29 01:09:48;;;;;;;15.63;6.82;;;;;;;18.09;54.03;97811.91;4455118;32;20146;-83
2023/04/29 01:12:33;;;;;;;14.38;7.00;;;;;;;17.94;54.47;97807.84;4444544;32;20509;-83
2023/04/29 01:15:05;;;;;;;15.00;8.02;;;;;;;18.04;53.87;97795.75;4440737;32;20100;-83
2023/04/29 01:17:38;;;;;;;14.23;7.82;;;;;;;17.80;54.62;97805.44;4441065;32;20166;-83
2023/04/29 01:20:06;;;;;;;14.68;7.43;;;;;;;17.77;54.02;97806.53;4454919;32;20081;-83
2023/04/29 01:22:33;;;;;;;17.48;7.82;;;;;;;17.46;54.93;97800.13;4441878;32;20487;-82
2023/04/29 01:25:00;;;;;;;13.95;7.70;;;;;;;17.63;54.04;97807.50;4457061;32;20115;-83
2023/04/29 01:27:41;;;;;;;15.95;7.50;;;;;;;17.63;53.88;97802.28;4456833;32;20108;-83
2023/04/29 01:30:30;;;;;;;17.12;7.68;;;;;;;17.34;54.42;97812.31;4443166;32;20109;-83
2023/04/29 01:33:14;;;;;;;15.25;7.43;;;;;;;17.89;52.59;97802.97;4457179;32;20077;-83
2023/04/29 01:35:51;;;;;;;15.25;7.87;;;;;;;17.54;53.14;97802.16;4456622;32;20108;-83
2023/04/29 01:38:37;;;;;;;;;;;;;;;17.52;52.64;97794.44;4443374;32;20158;-83
2023/04/29 01:41:04;;;;;;;17.35;7.32;;;;;;;17.94;52.09;97779.12;4457113;32;19976;-83
2023/04/29 01:43:32;;;;;;;14.13;7.78;;;;;;;17.31;53.12;97785.59;4456836;32;20077;-83
2023/04/29 01:46:00;;;;;;;17.90;7.93;;;;;;;17.75;52.11;97789.28;4456918;32;20146;-83
2023/04/29 01:48:27;;;;;;;17.80;7.70;;;;;;;16.84;55.52;97784.72;4442575;32;20127;-83
2023/04/29 01:50:54;;;;;;;16.27;7.55;;;;;;;15.72;60.04;97783.03;4457000;32;20103;-83
2023/04/29 01:53:21;;;;;;;15.25;7.62;;;;;;;15.83;60.65;97788.31;4456901;32;20073;-83
2023/04/29 01:55:48;;;;;;;14.65;7.65;;;;;;;15.79;60.85;97787.72;4456473;32;20101;-83
2023/04/29 01:58:15;;;;;;;16.23;7.72;;;;;;;15.85;59.91;97794.28;4456765;32;20107;-83
2023/04/29 02:00:42;;;;;;;17.17;7.35;;;;;;;15.65;59.95;97790.41;4442886;32;20424;-83
2023/04/29 02:03:09;;;;;;;17.58;8.80;;;;;;;16.62;56.66;97798.41;4456340;32;20451;-83
2023/04/29 02:05:36;;;;;;;15.00;7.75;;;;;;;16.48;57.26;97809.81;4456948;32;20150;-83
2023/04/29 02:08:04;;;;;;;15.23;7.55;;;;;;;16.14;60.41;97815.69;4456817;32;20161;-83
2023/04/29 02:10:31;;;;;;;14.45;7.45;;;;;;;16.76;59.02;97813.09;4456392;32;20145;-83
2023/04/29 02:12:58;;;;;;;13.68;7.20;;;;;;;15.17;67.79;97812.66;4456850;32;20097;-83
2023/04/29 02:15:28;;;;;;;16.25;6.95;;;;;;;15.85;65.50;97820.28;4456692;32;20112;-83
2023/04/29 02:17:55;;;;;;;13.93;6.72;;;;;;;16.54;62.13;97828.53;4456243;32;20105;-83
2023/04/29 02:20:22;;;;;;;14.23;6.87;;;;;;;16.33;62.79;97823.06;4456759;32;20540;-83
2023/04/29 02:22:48;;;;;;;15.32;7.18;;;;;;;16.24;63.73;97828.91;4456694;32;20111;-83
2023/04/29 02:25:16;;;;;;;15.20;6.90;;;;;;;17.05;60.65;97819.66;4456372;32;20094;-83
2023/04/29 02:27:44;;;;;;;16.15;7.47;;;;;;;17.16;59.87;97821.47;4456671;32;20093;-83
2023/04/29 02:30:11;;;;;;;18.40;7.93;;;;;;;17.12;59.98;97819.19;4456633;32;20093;-83
2023/04/29 02:32:38;;;;;;;21.33;8.32;;;;;;;17.48;58.33;97811.28;4456106;32;20428;-83
2023/04/29 02:35:06;;;;;;;15.90;7.70;;;;;;;17.62;57.11;97807.63;4455947;32;20105;-83
2023/04/29 02:37:33;;;;;;;17.00;7.82;;;;;;;17.73;56.11;97807.69;4456217;32;20150;-83
2023/04/29 02:40:02;;;;;;;13.90;6.68;;;;;;;18.28;53.57;97807.84;4456619;32;20080;-83
2023/04/29 02:42:29;;;;;;;14.13;7.62;;;;;;;18.29;53.50;97809.50;4442633;32;20577;-83
2023/04/29 02:44:56;;;;;;;15.73;7.60;;;;;;;18.43;53.13;97809.28;4456267;32;20705;-83
2023/04/29 02:47:23;;;;;;;14.63;7.93;;;;;;;18.15;53.81;97810.56;4456564;32;20162;-83
2023/04/29 02:49:50;;;;;;;17.10;7.90;;;;;;;18.27;53.61;97807.00;4442550;32;20463;-83
2023/04/29 02:52:18;;;;;;;16.73;7.50;;;;;;;18.15;53.79;97798.34;4456255;32;20088;-83
2023/04/29 02:54:45;;;;;;;15.77;7.47;;;;;;;18.32;53.32;97794.44;4456401;32;20097;-83
2023/04/29 02:57:11;;;;;;;14.48;7.05;;;;;;;18.58;52.06;97797.59;4456471;32;20154;-83
2023/04/29 02:59:38;;;;;;;13.05;6.95;;;;;;;18.86;50.80;97804.13;4455949;32;20102;-83
2023/04/29 03:02:06;;;;;;;15.43;7.00;;;;;;;18.78;51.24;97806.50;4456553;32;20329;-83
2023/04/29 03:04:33;;;;;;;13.48;7.50;;;;;;;17.33;57.09;97808.03;4456065;32;20101;-83
2023/04/29 03:07:00;;;;;;;15.50;7.20;;;;;;;17.12;58.29;97821.78;4456116;32;20116;-83
2023/04/29 03:09:27;;;;;;;14.10;6.85;;;;;;;17.24;57.59;97811.31;4456474;32;20093;-83
2023/04/29 03:11:53;;;;;;;13.07;7.03;;;;;;;16.89;59.57;97811.25;4456406;32;20481;-83
2023/04/29 03:14:20;;;;;;;14.50;7.55;;;;;;;16.06;62.69;97810.19;4455988;32;20100;-83
2023/04/29 03:16:47;;;;;;;14.27;7.43;;;;;;;15.85;62.61;97807.28;4456468;32;20098;-83
2023/04/29 03:19:15;;;;;;;14.48;7.05;;;;;;;16.00;63.33;97813.22;4456165;32;20097;-83
2023/04/29 03:21:42;;;;;;;12.80;6.87;;;;;;;15.64;64.13;97811.34;4456081;32;20100;-83
2023/04/29 03:24:09;;;;;;;15.77;7.40;;;;;;;16.32;60.18;97816.19;4456152;32;20101;-83
2023/04/29 03:26:36;;;;;;;14.90;7.62;;;;;;;15.80;62.51;97809.34;4456002;32;20146;-83
2023/04/29 03:29:03;;;;;;;17.55;8.43;;;;;;;16.35;60.06;97813.37;4456296;32;20530;-83
2023/04/29 03:31:29;;;;;;;18.50;8.15;;;;;;;16.14;60.86;97823.50;4456261;32;20404;-83
2023/04/29 03:33:56;;;;;;;15.73;7.80;;;;;;;15.89;62.57;97819.13;4441934;32;20109;-83
2023/04/29 03:36:23;;;;;;;16.27;7.70;;;;;;;15.70;64.10;97816.09;4456272;32;20089;-83
2023/04/29 03:38:50;;;;;;;14.40;7.62;;;;;;;16.30;62.89;97828.50;4455996;32;20103;-83
2023/04/29 03:41:17;;;;;;;16.73;7.37;;;;;;;17.38;58.52;97833.75;4455955;32;20402;-83
2023/04/29 03:43:44;;;;;;;15.65;7.07;;;;;;;17.46;57.89;97834.03;4442176;32;20101;-83
2023/04/29 03:46:11;;;;;;;17.37;6.87;;;;;;;16.99;59.45;97837.50;4456023;32;20147;-83
2023/04/29 03:48:38;;;;;;;13.38;6.55;;;;;;;17.12;59.46;97835.69;4455644;32;20109;-83
2023/04/29 03:51:05;;;;;;;14.38;6.78;;;;;;;16.54;61.74;97825.94;4456120;32;20077;-83
2023/04/29 03:53:32;;;;;;;17.83;6.97;;;;;;;16.62;60.27;97836.66;4442105;32;20178;-83
2023/04/29 03:55:59;;;;;;;17.95;7.20;;;;;;;14.97;65.48;97830.34;4455658;32;20097;-83
2023/04/29 03:58:26;;;;;;;13.93;6.90;;;;;;;15.00;67.70;97832.78;4455937;32;20076;-82
2023/04/29 04:00:54;;;;;;;16.50;7.32;;;;;;;14.83;69.85;97832.16;4455994;32;20436;-83
2023/04/29 04:03:21;;;;;;;18.20;7.82;;;;;;;15.05;67.52;97838.50;4455383;32;20101;-83
2023/04/29 04:05:49;;;;;;;17.73;7.75;;;;;;;14.83;69.52;97833.00;4455981;32;20097;-83
2023/04/29 04:08:16;;;;;;;16.37;7.53;;;;;;;14.14;73.83;97839.84;4455870;32;20088;-83
2023/04/29 04:10:43;;;;;;;14.45;7.15;;;;;;;15.06;70.12;97847.12;4455656;32;20077;-83
2023/04/29 04:13:10;;;;;;;20.48;8.13;;;;;;;16.34;63.95;97849.00;4455790;32;20093;-83
2023/04/29 04:15:37;;;;;;;18.15;8.02;;;;;;;16.25;64.58;97849.63;4455837;32;20154;-83
2023/04/29 04:18:04;;;;;;;17.67;7.97;;;;;;;15.78;66.40;97845.88;4455401;32;20119;-83
2023/04/29 04:20:31;;;;;;;13.55;7.10;;;;;;;16.75;63.21;97856.53;4455893;32;20068;-83
2023/04/29 04:22:58;;;;;;;14.77;7.22;;;;;;;17.64;58.11;97852.69;4455412;32;20092;-83
2023/04/29 04:25:25;;;;;;;15.15;7.10;;;;;;;17.53;58.15;97860.47;4455638;32;20158;-83
2023/04/29 04:27:53;;;;;;;16.08;7.25;;;;;;;17.29;59.30;97853.53;4455699;32;20576;-83
2023/04/29 04:30:20;;;;;;;13.73;6.82;;;;;;;16.70;61.92;97860.44;4455397;32;20431;-83
2023/04/29 04:32:47;;;;;;;13.50;7.28;;;;;;;17.14;60.07;97857.25;4455704;32;20098;-83
2023/04/29 04:35:14;;;;;;;16.62;7.20;;;;;;;17.01;59.72;97844.28;4455527;32;20101;-83
2023/04/29 04:37:41;;;;;;;15.63;7.72;;;;;;;17.63;57.72;97843.19;4455129;32;20111;-83
2023/04/29 04:40:10;;;;;;;18.00;7.40;;;;;;;16.88;59.82;97838.25;4455421;32;20089;-83
2023/04/29 04:42:37;;;;;;;16.17;7.65;;;;;;;16.91;60.39;97838.06;4455535;32;20158;-84
2023/04/29 04:45:04;;;;;;;16.20;8.32;;;;;;;17.00;59.16;97839.97;4454952;32;20587;-83
2023/04/29 04:47:31;;;;;;;17.58;8.18;;;;;;;16.77;61.69;97835.59;4455439;32;20081;-84
2023/04/29 04:49:58;;;;;;;17.67;9.18;;;;;;;16.40;62.35;97829.53;4455250;32;20459;-84
2023/04/29 04:52:25;;;;;;;19.00;9.70;;;;;;;15.72;65.70;97832.44;4455133;32;20097;-83
2023/04/29 04:54:52;;;;;;;16.80;8.23;;;;;;;16.33;64.14;97833.47;4455351;32;20093;-83
2023/04/29 04:57:19;;;;;;;17.10;8.85;;;;;;;16.63;63.25;97828.72;4456325;32;20080;-83
2023/04/29 04:59:46;;;;;;;19.85;8.90;;;;;;;16.27;65.31;97818.25;4456865;32;20081;-83
2023/04/29 05:02:13;;;;;;;16.27;9.10;;;;;;;16.38;64.45;97821.81;4457298;32;20101;-83
2023/04/29 05:04:40;;;;;;;19.15;9.27;;;;;;;16.04;65.70;97820.69;4456972;32;20132;-83
2023/04/29 05:07:06;;;;;;;18.75;9.93;;;;;;;15.95;66.75;97817.88;4457209;32;20085;-83
2023/04/29 05:09:33;;;;;;;14.87;8.07;;;;;;;15.26;70.83;97820.69;4457185;32;20078;-83
2023/04/29 05:12:00;;;;;;;21.67;9.30;;;;;;;14.35;76.20;97814.31;4456881;32;20454;-83
2023/04/29 05:14:27;;;;;;;16.83;8.65;;;;;;;14.92;74.33;97821.19;4457156;32;20757;-83
2023/04/29 05:16:58;;;;;;;16.55;8.98;;;;;;;15.49;72.29;97826.13;4457208;32;20432;-83
2023/04/29 05:19:25;;;;;;;17.67;8.60;;;;;;;15.54;72.07;97819.72;4456620;32;20081;-83
2023/04/29 05:21:52;;;;;;;18.80;8.85;;;;;;;15.53;72.55;97825.03;4457306;32;20105;-83
2023/04/29 05:24:19;;;;;;;15.45;8.07;;;;;;;16.45;67.98;97830.84;4457017;32;20105;-83
2023/04/29 05:26:46;;;;;;;17.33;8.65;;;;;;;15.97;69.34;97829.88;4456655;32;20435;-83
2023/04/29 05:29:13;;;;;;;17.05;9.43;;;;;;;14.69;76.98;97833.88;4457067;32;20108;-84
2023/04/29 05:31:40;;;;;;;16.70;8.77;;;;;;;16.64;68.63;97829.56;4443145;32;20119;-84
2023/04/29 05:34:07;;;;;;;17.83;8.52;;;;;;;16.89;66.36;97826.91;4456718;32;20096;-83
2023/04/29 05:36:34;;;;;;;17.70;9.07;;;;;;;15.82;70.61;97821.31;4443103;32;20156;-83
2023/04/29 05:39:01;;;;;;;19.42;9.45;;;;;;;16.23;68.92;97820.25;4456933;32;20097;-83
2023/04/29 05:41:28;;;;;;;18.58;9.02;;;;;;;16.00;71.08;97819.25;4442653;32;20158;-83
2023/04/29 05:43:55;;;;;;;17.67;10.07;;;;;;;15.41;74.93;97831.00;4456959;32;20123;-83
2023/04/29 05:46:22;;;;;;;18.25;9.43;;;;;;;15.21;73.80;97835.75;4457012;32;20099;-83
2023/04/29 05:48:49;;;;;;;17.08;9.23;;;;;;;15.26;74.58;97838.88;4456502;32;20128;-83
2023/04/29 05:51:16;;;;;;;17.10;9.82;;;;;;;15.10;75.76;97843.41;4456879;32;20439;-83
2023/04/29 05:53:43;;;;;;;16.90;10.05;;;;;;;14.95;76.09;97839.19;4456901;32;20155;-83
2023/04/29 05:56:10;;;;;;;20.73;9.02;;;;;;;14.50;78.70;97824.72;4456579;32;20089;-83
2023/04/29 05:58:37;;;;;;;17.35;9.73;;;;;;;13.96;79.99;97825.38;4456755;32;20089;-83
2023/04/29 06:01:04;;;;;;;18.55;10.50;;;;;;;14.06;81.73;97829.09;4456504;32;20093;-83
2023/04/29 06:03:31;;;;;;;20.27;10.23;;;;;;;14.72;81.80;97835.44;4456662;32;20203;-84
2023/04/29 06:05:58;;;;;;;19.92;9.25;;;;;;;15.14;77.78;97839.66;4456956;32;20119;-84
2023/04/29 06:08:25;;;;;;;18.62;9.10;;;;;;;14.56;80.71;97835.56;4455328;32;20127;-83
2023/04/29 06:10:52;;;;;;;18.05;9.63;;;;;;;14.89;77.57;97831.78;4456867;32;20376;-84
2023/04/29 06:13:19;;;;;;;18.02;9.48;;;;;;;14.94;78.24;97840.94;4442861;32;20109;-84
2023/04/29 06:15:46;;;;;;;17.27;9.55;;;;;;;14.71;77.62;97838.97;4456266;32;20096;-84
2023/04/29 06:18:13;;;;;;;17.77;9.35;;;;;;;15.38;74.08;97837.25;4456641;32;20085;-84
2023/04/29 06:20:40;;;;;;;18.08;9.73;;;;;;;16.09;71.81;97849.03;4456688;32;20094;-84
2023/04/29 06:23:07;;;;;;;17.73;10.07;;;;;;;15.98;72.65;97843.72;4442421;32;20105;-84
2023/04/29 06:25:34;;;;;;;16.30;9.48;;;;;;;16.01;72.44;97846.09;4456538;32;20084;-84
2023/04/29 06:28:03;;;;;;;19.23;9.63;;;;;;;15.06;76.76;97839.31;4456571;32;20085;-84
2023/04/29 06:30:30;;;;;;;18.73;9.50;;;;;;;15.38;75.05;97836.41;4456452;32;20109;-84
2023/04/29 06:32:56;;;;;;;19.17;10.35;;;;;;;14.99;76.58;97843.25;4456719;32;20468;-84
2023/04/29 06:35:24;;;;;;;20.42;9.75;;;;;;;15.27;75.12;97850.94;4456549;32;20089;-84
2023/04/29 06:37:51;;;;;;;20.52;10.90;;;;;;;16.03;72.53;97850.25;4456239;32;20142;-84
2023/04/29 06:40:18;;;;;;;18.30;11.20;;;;;;;16.20;71.84;97860.34;4456543;32;20092;-84
2023/04/29 06:42:45;;;;;;;22.33;9.23;;;;;;;16.67;69.32;97865.81;4456606;32;20093;-84
2023/04/29 06:45:12;;;;;;;18.83;9.55;;;;;;;15.24;73.12;97863.31;4456133;32;20085;-84
2023/04/29 06:47:39;;;;;;;17.62;9.52;;;;;;;16.20;69.30;97869.94;4456571;32;20508;-84
2023/04/29 06:50:06;;;;;;;18.30;9.85;;;;;;;15.10;73.79;97866.81;4456342;32;20089;-84
2023/04/29 06:52:33;;;;;;;17.33;9.80;;;;;;;15.27;74.41;97863.09;4456453;32;20162;-84
2023/04/29 06:55:00;;;;;;;19.77;9.85;;;;;;;15.87;71.96;97870.44;4456397;32;20088;-84
2023/04/29 06:57:27;;;;;;;18.20;9.50;;;;;;;15.12;75.01;97874.50;4456175;32;20073;-84
2023/04/29 06:59:54;;;;;;;22.23;9.98;;;;;;;15.10;74.22;97869.41;4456341;32;20093;-84
2023/04/29 07:02:21;;;;;;;18.95;9.90;;;;;;;15.14;74.85;97870.84;4456469;32;20101;-84
2023/04/29 07:04:49;;;;;;;17.62;9.60;;;;;;;15.30;74.37;97875.88;4455947;32;20085;-84
2023/04/29 07:07:16;;;;;;;19.08;9.93;;;;;;;15.22;76.40;97867.78;4456477;32;20406;-84
2023/04/29 07:09:43;;;;;;;19.48;10.32;;;;;;;14.38;77.73;97863.47;4456703;32;20140;-84
2023/04/29 07:12:10;;;;;;;19.67;10.77;;;;;;;15.10;75.69;97871.12;4456043;32;20150;-84
2023/04/29 07:14:36;;;;;;;18.37;10.32;;;;;;;15.83;72.72;97871.56;4456374;32;20443;-84
2023/04/29 07:17:03;;;;;;;23.80;10.35;;;;;;;15.69;72.21;97875.09;4456387;32;20151;-84
2023/04/29 07:19:30;;;;;;;20.27;10.48;;;;;;;15.25;74.19;97870.16;4455321;32;20153;-84
2023/04/29 07:21:58;;;;;;;20.42;10.85;;;;;;;14.92;78.06;97867.97;4442492;32;20109;-84
2023/04/29 07:24:25;;;;;;;18.92;10.57;;;;;;;15.56;74.99;97866.41;4456232;32;20084;-84
2023/04/29 07:26:52;;;;;;;27.62;10.07;;;;;;;15.48;73.15;97868.69;4455958;32;20432;-84
2023/04/29 07:29:19;;;;;;;19.00;9.48;;;;;;;15.87;72.18;97871.28;4456174;32;20432;-84
2023/04/29 07:31:46;;;;;;;16.67;9.10;;;;;;;16.89;65.27;97876.41;4456274;32;20111;-84
2023/04/29 07:34:13;;;;;;;17.92;9.05;;;;;;;17.23;63.52;97871.41;4455983;32;20186;-84
2023/04/29 07:36:40;;;;;;;21.95;9.63;;;;;;;17.32;63.05;97873.31;4456260;32;20093;-85
2023/04/29 07:39:07;;;;;;;18.65;9.60;;;;;;;17.34;65.32;97876.66;4456173;32;20102;-85
2023/04/29 07:41:33;;;;;;;15.25;8.02;;;;;;;18.18;61.11;97875.63;4455872;32;20151;-85
2023/04/29 07:44:00;;;;;;;15.00;8.40;;;;;;;18.96;55.40;97880.88;4456088;32;20093;-85
2023/04/29 07:46:27;;;;;;;18.73;8.93;;;;;;;20.41;50.68;97881.13;4455865;32;20142;-85
2023/04/29 07:48:54;;;;;;;15.63;8.30;;;;;;;19.91;52.13;97889.69;4456158;32;20162;-85
2023/04/29 07:51:21;;;;;;;15.35;8.60;;;;;;;20.65;50.97;97889.56;4456144;32;20107;-85
2023/04/29 07:53:48;;;;;;;16.35;8.45;;;;;;;20.69;50.15;97896.19;4455601;32;20489;-85
2023/04/29 07:56:15;;;;;;;14.85;8.10;;;;;;;21.38;48.61;97903.31;4456028;32;20137;-85
2023/04/29 07:58:42;;;;;;;17.83;8.45;;;;;;;22.13;46.02;97902.63;4455951;32;20081;-85
2023/04/29 08:01:10;;;;;;;14.82;8.00;;;;;;;21.76;46.14;97888.50;4455718;32;20101;-84
2023/04/29 08:03:38;;;;;;;14.23;8.07;;;;;;;21.17;47.63;97892.88;4455728;32;20085;-84
2023/04/29 08:06:07;;;;;;;15.80;8.23;;;;;;;21.43;47.21;97893.22;4456044;32;20134;-84
2023/04/29 08:08:34;;;;;;;16.00;8.35;;;;;;;21.54;47.53;97893.09;4455544;32;20113;-84
2023/04/29 08:11:02;;;;;;;14.82;8.43;;;;;;;21.74;47.24;97893.09;4456082;32;20206;-85
2023/04/29 08:13:29;;;;;;;17.80;8.23;;;;;;;21.51;48.13;97905.66;4441877;32;20533;-85
2023/04/29 08:15:56;;;;;;;14.57;8.68;;;;;;;21.20;49.31;97895.22;4455450;32;20414;-85
2023/04/29 08:18:23;;;;;;;15.15;8.27;;;;;;;20.71;55.29;97902.12;4455740;32;20096;-85
2023/04/29 08:20:50;;;;;;;14.90;8.27;;;;;;;20.34;56.42;97893.94;4455795;32;20101;-85
2023/04/29 08:23:17;;;;;;;13.50;7.25;;;;;;;21.53;51.86;97903.72;4455463;32;20093;-85
2023/04/29 08:25:44;;;;;;;14.02;7.45;;;;;;;22.40;49.54;97893.94;4455667;32;20427;-85
2023/04/29 08:28:11;;;;;;;16.62;8.32;;;;;;;20.44;55.58;97897.47;4455785;32;20152;-85
2023/04/29 08:30:39;;;;;;;16.45;8.45;;;;;;;20.12;55.18;97894.09;4454831;32;20089;-85
2023/04/29 08:33:07;;;;;;;18.33;8.00;;;;;;;20.19;56.48;97898.69;4441156;32;20103;-84
2023/04/29 08:35:37;;;;;;;14.27;7.40;;;;;;;19.32;59.79;97895.38;4455209;32;20444;-84
2023/04/29 08:38:05;;;;;;;17.05;8.18;;;;;;;19.19;61.39;97902.56;4455704;32;20479;-85
2023/04/29 08:40:45;;;;;;;15.13;8.23;;;;;;;18.88;61.59;97895.50;4455498;32;20109;-84
2023/04/29 08:43:15;;;;;;;13.75;8.32;;;;;;;19.19;61.86;97899.94;4455181;32;20089;-85
2023/04/29 08:45:43;;;;;;;15.82;8.27;;;;;;;18.28;64.89;97894.03;4455507;32;20420;-84
2023/04/29 08:48:10;;;;;;;15.00;8.20;;;;;;;18.01;64.91;97904.78;4455347;32;20101;-85
2023/04/29 08:50:40;;;;;;;15.50;8.10;;;;;;;17.53;69.91;97903.06;4455083;32;20134;-85
2023/04/29 08:53:08;;;;;;;13.77;7.57;;;;;;;17.78;70.65;97896.06;4455346;32;20450;-85
2023/04/29 08:55:36;;;;;;;15.63;8.60;;;;;;;17.88;70.83;97897.87;4455192;32;20493;-84
2023/04/29 08:58:03;;;;;;;15.20;7.05;;;;;;;17.83;71.01;97894.78;4454764;32;20089;-84
2023/04/29 09:00:31;;;;;;;14.80;7.45;;;;;;;17.80;71.85;97909.84;4455232;32;20146;-84
2023/04/29 09:03:00;;;;;;;15.38;7.43;;;;;;;17.79;70.73;97908.19;4455150;32;20119;-84
2023/04/29 09:05:27;;;;;;;14.25;7.85;;;;;;;18.47;67.41;97912.56;4454607;32;20133;-84
2023/04/29 09:07:58;;;;;;;15.13;8.25;;;;;;;17.58;72.64;97916.59;4440951;32;20101;-84
2023/04/29 09:10:25;;;;;;;15.80;9.00;;;;;;;16.97;76.18;97904.53;4441028;32;20520;-83
2023/04/29 09:12:56;;;;;;;15.70;7.95;;;;;;;17.89;72.80;97907.38;4441172;32;20142;-85
2023/04/29 09:15:23;;;;;;;15.77;7.65;;;;;;;18.61;68.62;97903.66;4455062;32;20108;-84
2023/04/29 09:17:50;;;;;;;18.12;9.15;;;;;;;19.58;65.62;97903.78;4454640;32;20093;-83
2023/04/29 09:20:20;;;;;;;14.18;7.55;;;;;;;19.00;65.90;97902.34;4454922;32;20447;-84
2023/04/29 09:23:03;;;;;;;14.75;8.57;;;;;;;20.41;58.78;97902.94;4455041;32;20148;-84
2023/04/29 09:25:30;;;;;;;16.58;8.15;;;;;;;20.41;59.32;97902.94;4454573;32;20085;-84
2023/04/29 09:27:57;;;;;;;13.02;7.40;;;;;;;19.44;61.91;97908.44;4454818;32;20101;-84
2023/04/29 09:30:25;;;;;;;12.27;6.93;;;;;;;20.14;60.14;97902.66;4454903;32;20151;-84
2023/04/29 09:33:06;;;;;;;13.48;7.30;;;;;;;19.97;59.67;97908.47;4454361;32;20107;-84
2023/04/29 09:35:34;;;;;;;13.30;7.30;;;;;;;20.23;57.36;97905.34;4454685;32;20138;-84
2023/04/29 09:38:27;;;;;;;16.90;7.65;;;;;;;21.43;53.92;97903.72;4440810;32;20104;-84
2023/04/29 09:40:55;;;;;;;14.10;7.22;;;;;;;22.04;51.01;97903.44;4451384;32;20431;-84
2023/04/29 09:43:25;;;;;;;12.48;6.68;;;;;;;22.55;49.79;97901.41;4456037;32;20084;-84
2023/04/29 09:45:52;;;;;;;12.32;6.90;;;;;;;21.23;54.09;97907.25;4442612;32;20345;-85
2023/04/29 09:48:19;;;;;;;11.82;7.15;;;;;;;21.27;56.09;97903.44;4443088;32;20101;-84
2023/04/29 09:51:01;;;;;;;13.25;7.30;;;;;;;21.79;54.02;97890.84;4456860;32;20144;-84
2023/04/29 09:53:30;;;;;;;13.35;6.45;;;;;;;21.49;54.08;97891.84;4456696;32;20092;-84
2023/04/29 09:55:59;;;;;;;14.43;6.72;;;;;;;21.47;55.00;97885.88;4457009;32;20085;-84
2023/04/29 09:58:32;;;;;;;10.93;5.72;;;;;;;21.28;56.56;97894.59;4456804;32;20428;-84
2023/04/29 10:01:01;;;;;;;12.93;6.20;;;;;;;21.91;53.54;97884.50;4456607;32;20159;-84
2023/04/29 10:03:36;;;;;;;11.95;5.60;;;;;;;21.95;53.74;97893.75;4456677;32;20089;-84
2023/04/29 10:06:05;;;;;;;12.30;6.18;;;;;;;21.72;53.81;97895.84;4443172;32;20141;-84
2023/04/29 10:08:33;;;;;;;12.40;6.28;;;;;;;21.54;56.54;97893.09;4456322;32;20109;-83
2023/04/29 10:11:02;;;;;;;10.40;5.03;;;;;;;21.42;58.04;97894.19;4456955;32;20115;-83
2023/04/29 10:13:29;;;;;;;9.82;5.35;;;;;;;22.48;54.43;97886.19;4442904;32;20085;-84
2023/04/29 10:16:07;;;;;;;10.45;4.57;;;;;;;22.26;55.79;97885.72;4456429;32;20097;-83
2023/04/29 10:18:38;;;;;;;9.45;4.68;;;;;;;22.20;52.42;97880.03;4456877;32;20085;-83
2023/04/29 10:21:07;;;;;;;11.12;5.40;;;;;;;22.00;53.36;97886.25;4442833;32;20164;-84
2023/04/29 10:23:35;;;;;;;12.20;5.25;;;;;;;21.36;56.64;97878.97;4456567;32;20089;-84
2023/04/29 10:26:02;;;;;;;10.00;5.15;;;;;;;22.00;53.51;97875.75;4456731;32;20093;-84
2023/04/29 10:28:32;;;;;;;10.55;5.15;;;;;;;21.79;53.51;97875.09;4456315;32;20155;-84
2023/04/29 10:31:04;;;;;;;12.73;5.80;;;;;;;23.40;49.80;97877.41;4456744;32;20089;-84
2023/04/29 10:33:32;;;;;;;10.57;5.25;;;;;;;21.90;54.56;97867.06;4456809;32;20088;-84
2023/04/29 10:36:00;;;;;;;11.38;5.40;;;;;;;21.99;52.39;97870.66;4456258;32;20384;-84
2023/04/29 10:38:33;;;;;;;9.95;5.12;;;;;;;21.08;56.84;97876.16;4456603;32;20124;-84
2023/04/29 10:41:03;;;;;;;10.93;5.00;;;;;;;20.69;58.83;97871.78;4456578;32;20085;-84
2023/04/29 10:43:30;;;;;;;11.18;4.90;;;;;;;19.88;60.43;97863.78;4456354;32;20150;-84
2023/04/29 10:46:16;;;;;;;10.25;4.82;;;;;;;19.15;64.40;97853.25;4456575;32;20085;-84
2023/04/29 10:48:44;;;;;;;12.15;4.95;;;;;;;19.95;64.33;97866.69;4455988;32;20093;-84
2023/04/29 10:51:11;;;;;;;9.75;4.00;;;;;;;20.07;61.12;97863.03;4456708;32;20153;-84
2023/04/29 10:54:14;;;;;;;9.60;4.30;;;;;;;19.42;62.23;97855.41;4456224;32;20096;-84
2023/04/29 10:56:49;;;;;;;11.02;4.82;;;;;;;20.29;61.51;97855.97;4453162;32;20337;-84
2023/04/29 10:59:42;;;;;;;9.05;4.37;;;;;;;20.77;58.34;97856.22;4456617;32;20097;-83
2023/04/29 11:02:09;;;;;;;9.57;4.30;;;;;;;20.37;59.92;97857.00;4456465;32;20745;-84
2023/04/29 11:05:06;;;;;;;9.05;4.10;;;;;;;19.97;61.09;97850.84;4455873;32;20136;-84
2023/04/29 11:07:32;;;;;;;8.00;3.70;;;;;;;20.57;57.97;97851.87;4456519;32;20150;-83
2023/04/29 11:10:01;;;;;;;8.93;3.78;;;;;;;19.68;60.39;97850.69;4456142;32;20089;-83
2023/04/29 11:12:28;;;;;;;8.18;3.65;;;;;;;20.77;59.34;97856.22;4456435;32;20101;-84
2023/04/29 11:15:02;;;;;;;8.27;3.78;;;;;;;21.35;57.03;97865.03;4456270;32;20099;-84
2023/04/29 11:17:35;;;;;;;7.93;3.42;;;;;;;20.82;57.08;97856.63;4456142;32;20142;-84
2023/04/29 11:20:02;;;;;;;7.50;3.40;;;;;;;20.82;57.45;97859.25;4456377;32;20101;-84
2023/04/29 11:22:30;;;;;;;7.82;3.50;;;;;;;20.56;58.83;97860.69;4456330;32;20141;-84
2023/04/29 11:25:07;;;;;;;8.88;4.20;;;;;;;21.06;57.64;97862.34;4455855;32;20104;-84
2023/04/29 11:27:35;;;;;;;;;;;;;;;20.99;55.92;97848.12;4456721;32;20416;-84
2023/04/29 11:30:04;;;;;;;9.02;3.70;;;;;;;20.61;58.63;97845.38;4456359;32;19991;-84
2023/04/29 11:32:36;;;;;;;8.30;3.80;;;;;;;20.41;57.44;97855.75;4456016;32;20142;-84